Time;durP1;ratioP1;P1;durP2;ratioP2;P2;SDS_P1;SDS_P2;PMS_P1;PMS_P2;Temp;Humidity;BMP_temperature;BMP_pressure;BME280_temperature;BME280_humidity;BME280_pressure;Samples;Min_cycle;Max_cycle;Signal;HPM_P1;HPM_P2
2022/01/03 00:00:32;;;;;;;8.73;3.50;;;12.60;99.90;;;12.77;100.00;100105.59;5026129;28;20233;-79
2022/01/03 00:03:05;;;;;;;498.27;449.15;;;12.70;99.90;;;12.80;100.00;100089.66;5012951;28;20224;-80
2022/01/03 00:05:33;;;;;;;273.38;246.40;;;12.70;99.90;;;12.78;100.00;100102.94;5005840;28;20214;-79
2022/01/03 00:08:04;;;;;;;133.23;43.10;;;12.70;99.90;;;12.88;100.00;100102.88;4984451;28;20203;-80
2022/01/03 00:10:34;;;;;;;348.90;290.65;;;12.70;99.90;;;12.78;100.00;100065.78;5019702;28;20210;-79
2022/01/03 00:13:05;;;;;;;66.50;49.95;;;12.70;99.90;;;12.82;100.00;100070.19;5000528;28;20229;-79
2022/01/03 00:15:33;;;;;;;4.03;1.13;;;12.70;99.90;;;12.69;100.00;100031.34;5001187;28;20217;-80
2022/01/03 00:18:00;;;;;;;2.25;0.90;;;12.70;99.90;;;12.57;100.00;100050.00;5000006;28;20214;-80
2022/01/03 00:20:29;;;;;;;3.58;1.20;;;12.70;99.90;;;12.59;100.00;100066.78;5015147;28;20206;-80
2022/01/03 00:23:06;;;;;;;86.93;74.53;;;12.60;99.90;;;12.53;100.00;100048.25;4995392;28;20575;-79
2022/01/03 00:25:42;;;;;;;409.73;380.73;;;12.60;99.90;;;12.62;100.00;100060.56;4997859;28;20313;-80
2022/01/03 00:28:22;;;;;;;463.30;431.00;;;12.60;99.90;;;12.68;100.00;100074.69;5001189;28;20198;-78
2022/01/03 00:31:00;;;;;;;516.97;475.73;;;12.50;99.90;;;12.63;100.00;100068.53;5011617;28;20217;-80
2022/01/03 00:33:30;;;;;;;356.67;207.48;;;12.60;99.90;;;12.69;100.00;100038.44;5016471;28;20238;-79
2022/01/03 00:36:00;;;;;;;;;;;12.60;99.90;;;12.72;100.00;100054.31;5003426;28;20203;-80
2022/01/03 00:38:35;;;;;;;706.10;650.10;;;12.70;99.90;;;12.54;100.00;100046.47;5005904;28;20438;-79
2022/01/03 00:41:03;;;;;;;517.33;470.40;;;12.60;99.90;;;12.66;100.00;100054.38;4972234;28;20209;-80
2022/01/03 00:43:32;;;;;;;137.02;101.25;;;12.60;99.90;;;12.61;100.00;100057.03;5010416;28;20240;-79
2022/01/03 00:46:00;;;;;;;0.00;0.00;;;12.60;99.90;;;12.54;100.00;100041.16;5019586;28;20253;-80
2022/01/03 00:48:32;;;;;;;116.50;49.15;;;12.60;99.90;;;12.60;100.00;100065.88;5034370;28;20214;-79
2022/01/03 00:51:03;;;;;;;402.27;299.38;;;10.50;99.90;;;12.64;100.00;100064.09;5015001;28;20217;-80
2022/01/03 00:53:31;;;;;;;311.42;214.07;;;12.60;99.90;;;12.72;100.00;100089.69;5002226;28;20227;-79
2022/01/03 00:56:13;;;;;;;159.73;47.73;;;12.60;99.90;;;12.55;100.00;100074.75;5043044;28;20220;-80
2022/01/03 00:58:53;;;;;;;388.98;352.42;;;12.50;99.90;;;12.43;100.00;100083.66;5000775;28;20214;-79
2022/01/03 01:01:24;;;;;;;108.13;47.53;;;12.40;99.90;;;12.57;100.00;100118.06;4993202;28;20863;-79
2022/01/03 01:03:55;;;;;;;141.33;48.97;;;12.40;99.90;;;12.55;100.00;100091.56;5013784;28;20236;-79
2022/01/03 01:06:25;;;;;;;187.17;56.60;;;12.50;99.90;;;12.60;100.00;100107.44;5012776;28;20235;-80
2022/01/03 01:08:56;;;;;;;138.40;49.27;;;12.50;99.90;;;12.45;100.00;100119.00;5017294;28;20217;-81
2022/01/03 01:11:29;;;;;;;191.33;40.00;;;12.50;99.90;;;12.60;100.00;100137.50;5006279;28;20236;-80
2022/01/03 01:14:00;;;;;;;129.77;35.90;;;12.50;99.90;;;12.08;100.00;100089.06;5008733;28;20264;-80
2022/01/03 01:16:28;;;;;;;131.40;44.97;;;12.40;99.90;;;10.36;100.00;99940.81;5015495;28;20232;-80
2022/01/03 01:18:56;;;;;;;136.18;94.38;;;11.50;99.90;;;9.84;100.00;99959.13;5004836;28;20689;-79
2022/01/03 01:21:26;;;;;;;0.82;0.50;;;10.90;99.90;;;9.74;100.00;100049.72;5005525;28;20217;-79
2022/01/03 01:23:58;;;;;;;124.77;51.00;;;10.40;99.90;;;9.68;100.00;100106.00;5015446;28;20237;-79
2022/01/03 01:29:17;;;;;;;151.10;59.92;;;10.00;99.90;;;9.83;100.00;100180.06;5022540;28;20221;-79
2022/01/03 01:31:54;;;;;;;96.33;50.13;;;9.90;99.90;;;9.81;100.00;100168.63;5004861;28;20208;-80
2022/01/03 01:34:29;;;;;;;110.60;50.47;;;10.00;99.90;;;9.29;100.00;100173.44;4998344;28;20244;-80
2022/01/03 01:37:01;;;;;;;14.50;2.75;;;9.90;99.90;;;9.18;100.00;100168.91;4992839;28;20247;-79
2022/01/03 01:39:34;;;;;;;291.17;176.93;;;9.60;99.90;;;8.99;100.00;100167.81;5010512;28;20198;-79
2022/01/03 01:42:04;;;;;;;174.13;80.10;;;9.50;99.90;;;9.04;100.00;100166.09;5010113;28;20208;-77
2022/01/03 01:44:37;;;;;;;11.57;6.97;;;9.40;99.90;;;9.14;100.00;100196.13;5017499;28;20238;-78
2022/01/03 01:47:07;;;;;;;120.25;73.15;;;9.30;99.90;;;9.14;100.00;100191.75;4972514;28;20236;-78
2022/01/03 01:49:45;;;;;;;410.70;337.52;;;9.30;99.90;;;9.12;100.00;100193.47;4999760;28;20217;-77
2022/01/03 01:52:23;;;;;;;168.30;100.82;;;9.30;99.90;;;9.23;100.00;100231.41;4989725;28;20217;-78
2022/01/03 01:55:00;;;;;;;165.63;71.70;;;9.30;99.90;;;9.21;100.00;100233.16;4993271;28;20217;-79
2022/01/03 01:58:19;;;;;;;199.18;179.18;;;9.30;99.90;;;9.30;100.00;100264.03;4975344;28;20684;-78
2022/01/03 02:00:59;;;;;;;123.57;56.80;;;9.40;99.90;;;9.52;100.00;100279.25;4998794;28;20218;-78
2022/01/03 02:03:53;;;;;;;46.83;32.40;;;9.50;99.90;;;9.50;100.00;100278.34;5004148;28;20237;-78
2022/01/03 02:06:34;;;;;;;30.08;22.10;;;9.50;99.90;;;9.53;100.00;100281.00;5001437;28;20222;-78
2022/01/03 02:09:17;;;;;;;0.10;0.10;;;9.60;99.90;;;9.51;100.00;100277.47;5009742;28;20209;-79
2022/01/03 02:11:55;;;;;;;103.88;49.35;;;9.60;99.90;;;9.65;100.00;100311.94;5010651;28;20215;-79
2022/01/03 02:14:35;;;;;;;26.65;12.98;;;9.60;99.90;;;9.37;100.00;100307.22;5003342;28;20233;-78
2022/01/03 02:17:04;;;;;;;332.03;159.40;;;9.60;99.90;;;9.06;100.00;100292.72;4984067;28;20206;-78
2022/01/03 02:19:40;;;;;;;292.67;99.53;;;9.40;99.90;;;8.99;100.00;100281.22;5013055;28;20217;-79
2022/01/03 02:22:13;;;;;;;0.10;0.10;;;9.30;99.90;;;8.91;100.00;100251.22;5005410;28;20214;-79
2022/01/03 02:24:50;;;;;;;0.52;0.45;;;9.20;99.90;;;9.07;100.00;100244.38;4990776;28;20237;-79
2022/01/03 02:27:18;;;;;;;0.00;0.00;;;9.10;99.90;;;8.94;100.00;100238.06;5031553;28;20234;-78
2022/01/03 02:29:46;;;;;;;0.00;0.00;;;9.10;99.90;;;9.11;100.00;100256.78;5019080;28;20214;-80
2022/01/03 02:32:19;;;;;;;0.10;0.10;;;9.10;99.90;;;9.11;100.00;100270.84;4999427;28;20211;-78
2022/01/03 02:34:48;;;;;;;0.08;0.08;;;;;;;9.08;100.00;100298.91;5009716;28;20223;-79
2022/01/03 02:37:24;;;;;;;0.10;0.10;;;9.20;99.90;;;8.95;100.00;100311.06;5015357;28;20207;-78
2022/01/03 02:39:53;;;;;;;0.08;0.08;;;9.20;99.90;;;8.60;100.00;100285.09;4997429;28;20249;-78
2022/01/03 02:42:25;;;;;;;0.00;0.00;;;9.00;99.90;;;8.42;100.00;100239.13;5033536;28;20213;-79
2022/01/03 02:45:03;;;;;;;0.10;0.10;;;8.80;99.90;;;8.30;100.00;100245.94;5028823;23;20249;-90
2022/01/03 02:47:33;;;;;;;0.00;0.00;;;8.70;99.90;;;8.32;100.00;100262.66;5010561;28;20222;-86
2022/01/03 02:50:03;;;;;;;0.10;0.10;;;;;;;8.37;100.00;100261.88;5008508;28;20224;-86
2022/01/03 02:52:33;;;;;;;0.00;0.00;;;;;;;8.55;100.00;100285.88;4979187;28;20211;-87
2022/01/03 02:55:03;;;;;;;0.00;0.00;;;8.60;99.90;;;8.59;100.00;100308.78;4993039;28;20215;-86
2022/01/03 02:57:43;;;;;;;0.10;0.10;;;8.70;99.90;;;8.71;100.00;100310.72;4979347;28;20207;-86
2022/01/03 03:00:19;;;;;;;0.10;0.10;;;8.70;99.90;;;8.83;100.00;100302.97;4977357;28;20208;-86
2022/01/03 03:02:48;;;;;;;0.00;0.00;;;;;;;9.00;100.00;100288.25;4993960;28;20210;-87
2022/01/03 03:05:18;;;;;;;0.03;0.03;;;;;;;8.99;100.00;100289.13;4991587;28;20208;-87
2022/01/03 03:07:48;;;;;;;0.00;0.00;;;9.00;99.90;;;8.99;100.00;100283.84;4976065;28;20219;-88
2022/01/03 03:10:20;;;;;;;0.00;0.00;;;9.00;99.90;;;9.18;100.00;100300.84;4956895;28;20228;-87
2022/01/03 03:12:50;;;;;;;50.00;33.92;;;8.90;99.90;;;9.13;100.00;100284.94;4979274;28;20203;-86
2022/01/03 03:15:19;;;;;;;418.67;289.80;;;9.10;99.90;;;9.25;100.00;100295.66;4982604;28;20647;-86
2022/01/03 03:17:49;;;;;;;403.45;238.25;;;9.10;99.90;;;9.34;100.00;100309.81;4973956;28;20214;-87
2022/01/03 03:20:26;;;;;;;414.98;275.05;;;9.20;99.90;;;9.71;100.00;100319.91;4974809;28;20663;-88
2022/01/03 03:22:57;;;;;;;388.80;217.35;;;9.40;99.90;;;9.71;100.00;100296.16;4973026;28;20218;-86
2022/01/03 03:25:33;;;;;;;391.70;206.88;;;9.50;99.90;;;9.98;100.00;100315.78;4965594;28;20214;-87
2022/01/03 03:28:11;;;;;;;339.50;224.57;;;9.60;99.90;;;10.08;100.00;100304.44;4959884;28;20231;-86
2022/01/03 03:30:47;;;;;;;0.00;0.00;;;10.00;99.90;;;10.35;100.00;100295.88;4983114;28;20675;-88
2022/01/03 03:33:38;;;;;;;0.10;0.10;;;10.00;99.90;;;10.19;100.00;100264.00;4989421;28;20667;-85
2022/01/03 03:36:07;;;;;;;384.50;251.32;;;10.10;99.90;;;10.00;100.00;100248.88;4963603;28;20211;-86
2022/01/03 03:38:36;;;;;;;359.63;272.17;;;10.00;99.90;;;10.15;100.00;100278.06;4979432;28;20218;-85
2022/01/03 03:41:09;;;;;;;84.43;77.70;;;;;;;10.36;100.00;100266.81;4965109;28;20199;-86
2022/01/03 03:43:44;;;;;;;21.73;8.50;;;;;;;10.42;100.00;100255.44;4976868;28;20218;-84
2022/01/03 03:46:12;;;;;;;0.30;0.30;;;;;;;10.25;100.00;100247.34;5009884;28;20203;-85
2022/01/03 03:48:41;;;;;;;1.65;1.02;;;10.20;99.90;;;10.39;100.00;100239.50;4977501;28;20238;-84
2022/01/03 03:51:13;;;;;;;0.30;0.30;;;;;;;10.11;100.00;100212.88;4993213;28;20215;-86
2022/01/03 03:53:42;;;;;;;5.05;1.50;;;10.20;99.90;;;10.45;100.00;100229.00;4986163;28;20670;-85
2022/01/03 03:56:12;;;;;;;4.70;1.88;;;10.20;99.90;;;10.51;100.00;100240.50;4992202;28;20210;-84
2022/01/03 03:58:40;;;;;;;6.90;2.25;;;10.20;99.90;;;10.49;100.00;100236.09;4990356;28;20234;-84
2022/01/03 04:01:10;;;;;;;362.33;325.03;;;10.30;99.90;;;10.64;100.00;100222.06;4974786;28;20681;-85
2022/01/03 04:03:45;;;;;;;416.75;318.30;;;10.40;99.90;;;10.33;100.00;100202.47;4978984;28;20203;-85
2022/01/03 04:06:15;;;;;;;465.20;418.93;;;;;;;10.30;100.00;100199.81;4966903;28;20228;-85
2022/01/03 04:08:47;;;;;;;603.30;553.60;;;;;;;10.47;100.00;100211.41;4980581;28;20227;-85
2022/01/03 04:11:17;;;;;;;299.85;275.77;;;;;;;10.42;100.00;100208.72;5011706;28;20207;-85
2022/01/03 04:13:46;;;;;;;0.13;0.13;;;;;;;10.55;100.00;100223.78;4992475;28;20230;-84
2022/01/03 04:16:15;;;;;;;0.73;0.60;;;;;;;10.47;100.00;100204.34;4980893;28;20207;-85
2022/01/03 04:18:43;;;;;;;7.40;2.17;;;;;;;10.57;100.00;100198.25;4972003;28;20223;-85
2022/01/03 04:21:12;;;;;;;39.78;17.00;;;;;;;10.56;100.00;100206.16;4975703;28;20218;-85
2022/01/03 04:23:41;;;;;;;0.82;0.68;;;;;;;10.45;100.00;100202.56;4961900;28;20223;-85
2022/01/03 04:26:09;;;;;;;0.20;0.20;;;;;;;10.55;100.00;100209.69;4977703;28;20210;-84
2022/01/03 04:28:39;;;;;;;4.35;1.00;;;10.40;99.90;;;10.47;100.00;100200.81;4978668;28;20234;-85
2022/01/03 04:31:09;;;;;;;256.13;236.90;;;10.40;99.90;;;10.37;100.00;100201.63;4981304;28;20210;-84
2022/01/03 04:33:38;;;;;;;0.10;0.10;;;;;;;10.55;100.00;100201.75;4985692;28;20204;-83
2022/01/03 04:36:07;;;;;;;4.15;1.45;;;10.40;99.90;;;10.53;100.00;100192.94;4981450;28;20207;-83
2022/01/03 04:38:37;;;;;;;145.67;74.30;;;10.40;99.90;;;10.49;100.00;100188.50;4998085;28;20223;-84
2022/01/03 04:41:06;;;;;;;381.42;262.27;;;10.40;99.90;;;10.54;100.00;100192.94;4999382;28;20203;-84
2022/01/03 04:43:34;;;;;;;276.90;151.13;;;10.30;99.90;;;10.57;100.00;100179.72;4966074;28;20215;-84
2022/01/03 04:46:03;;;;;;;332.77;161.47;;;10.40;99.90;;;10.57;100.00;100166.50;4999921;28;20678;-84
2022/01/03 04:48:32;;;;;;;277.98;212.20;;;;;;;10.64;100.00;100172.72;4980069;28;20233;-84
2022/01/03 04:51:00;;;;;;;37.00;16.63;;;;;;;10.49;100.00;100160.31;4999608;28;20207;-84
2022/01/03 04:53:29;;;;;;;13.48;6.43;;;10.50;99.90;;;10.53;100.00;100151.50;4964836;28;20204;-84
2022/01/03 04:55:57;;;;;;;384.83;341.52;;;10.50;99.90;;;10.64;100.00;100155.97;4984124;28;20218;-84
2022/01/03 04:58:26;;;;;;;388.30;270.93;;;10.50;99.90;;;10.63;100.00;100159.47;4984534;28;20223;-84
2022/01/03 05:00:54;;;;;;;62.70;40.70;;;10.50;99.90;;;10.69;100.00;100156.88;4999432;28;20218;-84
2022/01/03 05:03:23;;;;;;;360.53;203.70;;;10.60;99.90;;;10.74;100.00;100163.94;4985873;28;20196;-84
2022/01/03 05:05:51;;;;;;;85.30;44.58;;;10.60;99.90;;;10.73;100.00;100132.19;4982043;28;20603;-84
2022/01/03 05:08:20;;;;;;;68.90;24.90;;;;;;;10.71;100.00;100139.25;4970668;28;20235;-84
2022/01/03 05:10:52;;;;;;;43.92;39.30;;;;;;;10.80;100.00;100152.50;4966388;28;20208;-83
2022/01/03 05:13:20;;;;;;;206.73;46.77;;;10.60;99.90;;;10.65;100.00;100124.22;4981776;28;20217;-85
2022/01/03 05:15:49;;;;;;;67.95;40.85;;;10.60;99.90;;;10.69;100.00;100154.22;5004179;28;20229;-84
2022/01/03 05:18:17;;;;;;;143.70;78.72;;;10.40;99.90;;;10.69;100.00;100141.00;4997921;28;20231;-84
2022/01/03 05:20:46;;;;;;;83.43;46.83;;;10.60;99.90;;;10.66;100.00;100119.81;4985414;28;21668;-83
2022/01/03 05:23:20;;;;;;;109.53;57.17;;;10.60;99.90;;;10.61;100.00;100126.84;4983235;28;20224;-83
2022/01/03 05:25:49;;;;;;;18.83;9.77;;;10.50;99.90;;;10.60;100.00;100130.38;4985249;28;20202;-83
2022/01/03 05:28:18;;;;;;;26.58;10.00;;;10.50;99.90;;;10.70;100.00;100126.91;4984344;28;20231;-83
2022/01/03 05:30:47;;;;;;;0.20;0.20;;;;;;;10.68;100.00;100153.34;5002500;28;20200;-83
2022/01/03 05:33:16;;;;;;;328.20;205.23;;;10.60;99.90;;;10.54;100.00;100124.19;4994884;28;20203;-84
2022/01/03 05:35:44;;;;;;;0.10;0.10;;;;;;;10.69;100.00;100119.84;4987566;28;20200;-83
2022/01/03 05:38:13;;;;;;;4.05;1.33;;;;;;;10.66;100.00;100139.22;4998164;28;20228;-85
2022/01/03 05:40:41;;;;;;;1.38;0.68;;;10.60;99.90;;;10.62;100.00;100128.63;4959888;28;20211;-85
2022/01/03 05:43:10;;;;;;;0.30;0.30;;;;;;;10.53;100.00;100129.47;4984079;28;20218;-83
2022/01/03 05:45:39;;;;;;;3.28;1.25;;;;;;;10.57;100.00;100134.78;4981141;28;20207;-83
2022/01/03 05:48:09;;;;;;;0.10;0.10;;;;;;;10.43;100.00;100122.38;4984642;28;20221;-83
2022/01/03 05:50:38;;;;;;;1.85;0.88;;;10.50;99.90;;;10.56;100.00;100161.22;4966087;28;20207;-83
2022/01/03 05:53:06;;;;;;;3.28;1.23;;;10.40;99.90;;;10.56;100.00;100135.66;4981975;28;20212;-83
2022/01/03 05:55:34;;;;;;;4.20;1.52;;;10.50;99.90;;;10.45;100.00;100131.19;4997630;28;20211;-83
2022/01/03 05:58:04;;;;;;;3.40;1.23;;;;;;;10.54;100.00;100144.47;4963866;28;20224;-84
2022/01/03 06:00:35;;;;;;;399.85;300.20;;;10.50;99.90;;;10.58;100.00;100135.66;4965779;28;20204;-83
2022/01/03 06:03:03;;;;;;;72.15;43.50;;;10.50;99.90;;;10.64;100.00;100140.97;4991177;28;20119;-84
2022/01/03 06:07:59;;;;;;;81.10;45.63;;;10.50;99.90;;;10.47;100.00;100125.03;4999864;28;20264;-84
2022/01/03 06:10:32;;;;;;;84.03;45.23;;;10.50;99.90;;;10.50;100.00;100127.69;4984896;28;20657;-83
2022/01/03 06:13:01;;;;;;;273.20;143.27;;;10.50;99.90;;;10.45;100.00;100128.56;4998775;28;20224;-83
2022/01/03 06:15:29;;;;;;;80.40;43.97;;;10.40;99.90;;;10.62;100.00;100140.09;4999109;28;20220;-84
2022/01/03 06:17:58;;;;;;;245.73;95.00;;;10.50;99.90;;;10.63;100.00;100125.09;4998341;28;20222;-83
2022/01/03 06:20:26;;;;;;;40.45;32.78;;;10.40;99.90;;;10.48;100.00;100110.94;4980423;28;20243;-83
2022/01/03 06:22:54;;;;;;;155.10;32.37;;;10.50;99.90;;;10.47;100.00;100106.53;4961975;28;20226;-84
2022/01/03 06:25:27;;;;;;;138.90;42.07;;;10.50;99.90;;;10.60;100.00;100109.22;4995397;28;20238;-84
2022/01/03 06:27:55;;;;;;;134.80;44.70;;;10.50;99.90;;;10.42;100.00;100110.91;4988232;28;20213;-84
2022/01/03 06:30:24;;;;;;;64.43;39.45;;;10.50;99.90;;;10.61;100.00;100132.16;4980544;28;20514;-84
2022/01/03 06:32:52;;;;;;;112.35;48.47;;;10.50;99.90;;;10.65;100.00;100124.22;4982652;28;20217;-85
2022/01/03 06:35:20;;;;;;;132.37;46.13;;;10.50;99.90;;;10.50;100.00;100100.38;4983027;28;20213;-84
2022/01/03 06:37:49;;;;;;;121.43;50.63;;;10.50;99.90;;;10.56;100.00;100119.78;4982328;28;20485;-84
2022/01/03 06:40:21;;;;;;;109.27;46.37;;;10.40;99.90;;;10.56;100.00;100117.16;4981857;28;20236;-83
2022/01/03 06:42:49;;;;;;;98.55;46.78;;;10.50;99.90;;;10.54;100.00;100118.91;4997813;28;20217;-83
2022/01/03 06:45:20;;;;;;;233.50;208.27;;;10.50;99.90;;;10.69;100.00;100123.38;4968892;28;20207;-83
2022/01/03 06:47:50;;;;;;;264.27;237.57;;;10.50;99.90;;;10.63;100.00;100103.94;4964508;28;20203;-87
2022/01/03 06:50:20;;;;;;;289.90;201.07;;;10.50;99.90;;;10.55;100.00;100099.53;5005707;28;20226;-84
2022/01/03 06:52:48;;;;;;;263.63;248.23;;;;;;;10.54;100.00;100091.59;4998820;28;20207;-84
2022/01/03 06:55:17;;;;;;;337.63;154.70;;;;;;;10.50;100.00;100101.25;4965079;28;20210;-85
2022/01/03 06:57:48;;;;;;;521.78;469.83;;;10.50;99.90;;;10.58;100.00;100110.09;4976426;28;20207;-86
2022/01/03 07:00:17;;;;;;;34.13;13.80;;;10.60;99.90;;;10.69;100.00;100111.91;4984815;28;20295;-85
2022/01/03 07:02:46;;;;;;;364.60;169.98;;;10.50;99.90;;;10.55;100.00;100098.63;4982891;28;20210;-85
2022/01/03 07:05:15;;;;;;;180.45;166.25;;;;;;;10.58;100.00;100110.09;4982946;28;20203;-84
2022/01/03 07:07:43;;;;;;;370.15;256.55;;;10.50;99.90;;;10.52;100.00;100110.09;4966151;28;20207;-85
2022/01/03 07:10:12;;;;;;;20.35;16.35;;;;;;;10.50;100.00;100098.63;4999259;28;20223;-85
2022/01/03 07:12:40;;;;;;;8.77;3.80;;;;;;;10.52;100.00;100110.09;4983539;28;20203;-84
2022/01/03 07:20:42;;;;;;;259.90;94.50;;;;;;;10.40;100.00;100102.09;4978604;28;20681;-86
2022/01/03 07:23:12;;;;;;;308.47;120.77;;;10.50;99.90;;;10.52;100.00;100111.84;4946161;28;20462;-85
2022/01/03 07:25:40;;;;;;;178.18;169.27;;;10.40;99.90;;;10.49;100.00;100118.00;4981258;28;20209;-85
2022/01/03 07:28:08;;;;;;;455.75;415.48;;;;;;;10.45;100.00;100113.56;4966161;28;20228;-85
2022/01/03 07:30:37;;;;;;;4.30;1.20;;;;;;;10.50;100.00;100121.53;4982195;28;20227;-84
2022/01/03 07:33:05;;;;;;;64.88;60.42;;;;;;;10.53;100.00;100105.69;4988792;28;20196;-86
2022/01/03 07:35:33;;;;;;;489.88;440.83;;;10.50;99.90;;;10.53;100.00;100118.91;5018612;28;20253;-85
2022/01/03 07:38:03;;;;;;;8.93;1.90;;;10.50;99.90;;;10.43;100.00;100101.22;5001905;28;20226;-85
2022/01/03 07:40:32;;;;;;;0.00;0.00;;;10.40;99.90;;;10.39;100.00;100118.81;4999219;28;20219;-86
2022/01/03 07:43:00;;;;;;;0.30;0.20;;;;;;;10.37;100.00;100104.69;4998690;28;20239;-86
2022/01/03 07:45:29;;;;;;;0.10;0.10;;;;;;;10.52;100.00;100117.13;5006165;28;20210;-85
2022/01/03 07:47:57;;;;;;;245.15;204.43;;;;;;;10.27;100.00;100116.09;4987240;28;20207;-84
2022/01/03 07:50:26;;;;;;;11.55;3.72;;;;;;;10.40;100.00;100148.75;5002011;28;20607;-84
2022/01/03 07:52:54;;;;;;;387.52;236.02;;;10.40;99.90;;;10.35;100.00;100156.66;4986077;28;20210;-85
2022/01/03 07:55:22;;;;;;;409.17;280.95;;;10.30;99.90;;;10.39;100.00;100153.16;4967013;28;20209;-84
2022/01/03 07:57:51;;;;;;;395.35;258.42;;;10.40;99.90;;;10.59;100.00;100169.16;4981419;28;20667;-85
2022/01/03 08:00:19;;;;;;;157.63;115.47;;;10.40;99.90;;;10.48;100.00;100133.84;4981911;28;20199;-85
2022/01/03 08:02:48;;;;;;;0.20;0.20;;;;;;;10.45;100.00;100144.41;4965541;28;20203;-85
2022/01/03 08:05:17;;;;;;;0.13;0.13;;;10.50;99.90;;;10.54;100.00;100161.22;4966289;28;20702;-85
2022/01/03 08:07:45;;;;;;;0.10;0.10;;;;;;;10.53;100.00;100151.50;4981827;28;20210;-85
2022/01/03 08:10:14;;;;;;;0.00;0.00;;;10.50;99.90;;;10.55;100.00;100173.56;4982162;28;20215;-85
2022/01/03 08:12:44;;;;;;;0.10;0.10;;;;;;;10.35;100.00;100154.03;4965497;28;20651;-85
2022/01/03 08:15:13;;;;;;;353.00;319.58;;;10.50;99.90;;;10.27;100.00;100161.91;4981910;28;20667;-85
2022/01/03 08:17:44;;;;;;;0.10;0.10;;;;;;;10.22;100.00;100168.03;4978789;28;20212;-85
2022/01/03 08:20:13;;;;;;;0.10;0.10;;;10.30;99.90;;;10.36;100.00;100187.50;4978684;28;20204;-84
2022/01/03 08:22:41;;;;;;;0.10;0.10;;;;;;;10.41;100.00;100192.88;4978291;28;20683;-85
2022/01/03 08:25:10;;;;;;;0.60;0.60;;;;;;;10.53;100.00;100196.44;4978694;28;20212;-84
2022/01/03 08:27:38;;;;;;;0.10;0.10;;;;;;;10.55;100.00;100189.41;4962786;28;20207;-84
2022/01/03 08:30:07;;;;;;;10.25;2.00;;;10.40;99.90;;;10.52;100.00;100177.94;4979726;28;20247;-85
2022/01/03 08:32:35;;;;;;;0.90;0.50;;;;;;;10.38;100.00;100164.63;4978518;28;20207;-85
2022/01/03 08:35:03;;;;;;;424.42;366.92;;;10.50;99.90;;;10.60;100.00;100191.19;4962824;28;20230;-86
2022/01/03 08:37:32;;;;;;;374.05;336.08;;;10.50;99.90;;;10.64;100.00;100174.47;4978685;28;20581;-85
2022/01/03 08:40:03;;;;;;;9.02;1.95;;;;;;;10.63;100.00;100168.28;4978847;28;20224;-85
2022/01/03 08:42:32;;;;;;;5.70;1.48;;;;;;;10.76;100.00;100178.06;4979579;28;20211;-86
2022/01/03 08:45:04;;;;;;;399.90;352.50;;;10.60;99.90;;;10.88;100.00;100178.09;4963100;28;20212;-85
2022/01/03 08:47:32;;;;;;;387.98;350.55;;;10.70;99.90;;;10.87;100.00;100156.94;4979441;28;20211;-84
2022/01/03 08:50:02;;;;;;;347.60;203.80;;;10.80;99.90;;;11.00;100.00;100149.91;4963372;28;20164;-84
2022/01/03 08:52:30;;;;;;;0.10;0.10;;;;;;;10.98;100.00;100134.03;4962557;28;20208;-85
2022/01/03 08:54:59;;;;;;;229.18;207.50;;;10.80;99.90;;;10.91;100.00;100137.53;4979296;28;20211;-85
2022/01/03 08:57:28;;;;;;;5.07;1.40;;;;;;;10.96;100.00;100130.50;4980011;28;20219;-85
2022/01/03 08:59:56;;;;;;;150.18;137.50;;;;;;;10.96;100.00;100114.63;4986985;28;20222;-85
2022/01/03 09:02:24;;;;;;;10.93;10.27;;;;;;;10.96;100.00;100119.03;5000716;28;20207;-85
2022/01/03 09:04:52;;;;;;;291.02;274.60;;;;;;;10.98;100.00;100125.22;4966780;28;20215;-85
2022/01/03 09:07:21;;;;;;;264.50;250.13;;;;;;;11.13;100.00;100134.06;4982034;28;20207;-85
2022/01/03 09:09:49;;;;;;;119.82;113.93;;;;;;;10.97;100.00;100107.56;4997578;28;20230;-86
2022/01/03 09:12:17;;;;;;;131.48;123.40;;;;;;;10.98;100.00;100118.16;4995162;28;20208;-85
2022/01/03 09:14:46;;;;;;;274.25;256.48;;;;;;;11.04;100.00;100128.75;4970607;28;20208;-85
2022/01/03 09:17:14;;;;;;;338.17;314.15;;;11.00;99.90;;;11.12;100.00;100121.72;4979373;28;20219;-85
2022/01/03 09:19:42;;;;;;;415.67;381.30;;;11.00;99.90;;;11.08;100.00;100117.28;4977447;28;20572;-85
2022/01/03 09:22:18;;;;;;;436.05;396.42;;;11.00;99.90;;;11.01;100.00;100114.63;4985878;28;20533;-85
2022/01/03 09:24:55;;;;;;;483.30;395.35;;;11.00;99.90;;;11.01;100.00;100122.56;4992632;28;20291;-85
2022/01/03 09:30:14;;;;;;;463.00;414.98;;;11.10;99.90;;;11.08;100.00;100127.88;5008490;28;20231;-85
2022/01/03 09:32:52;;;;;;;;;;;;;;;;;;;;;
2022/01/03 09:35:23;;;;;;;532.70;481.00;;;11.10;99.90;;;11.31;100.00;100116.44;4976588;28;20225;-83
2022/01/03 09:37:51;;;;;;;540.75;488.63;;;11.10;99.90;;;11.26;100.00;100121.72;4938135;28;20224;-84
2022/01/03 09:40:20;;;;;;;287.38;268.20;;;;;;;11.32;100.00;100116.44;4962408;28;20208;-83
2022/01/03 09:42:58;;;;;;;504.90;452.08;;;11.20;99.90;;;11.35;100.00;100110.28;4947493;28;20201;-83
2022/01/03 09:45:32;;;;;;;432.00;388.13;;;11.30;99.90;;;11.37;100.00;100097.91;4995604;28;20201;-83
2022/01/03 09:48:03;;;;;;;467.70;416.30;;;11.20;99.90;;;11.33;100.00;100102.31;4946580;28;20216;-84
2022/01/03 09:50:33;;;;;;;453.33;404.08;;;11.20;99.90;;;11.36;100.00;100097.03;4966842;28;20232;-84
2022/01/03 09:53:03;;;;;;;481.92;430.95;;;11.30;99.90;;;11.37;100.00;100098.81;4944573;28;20208;-83
2022/01/03 09:55:32;;;;;;;398.15;359.02;;;11.30;99.90;;;11.41;100.00;100099.69;4969443;28;20200;-83
2022/01/03 09:58:01;;;;;;;498.27;450.65;;;;;;;11.42;100.00;100098.81;4983227;28;20200;-84
2022/01/03 10:00:29;;;;;;;446.58;414.20;;;;;;;11.52;100.00;100098.81;4972504;28;20215;-84
2022/01/03 10:02:58;;;;;;;438.10;406.70;;;;;;;11.49;100.00;100088.22;4945367;28;20224;-84
2022/01/03 10:05:26;;;;;;;490.60;437.38;;;11.40;99.90;;;11.46;100.00;100098.81;4951827;28;20204;-84
2022/01/03 10:07:55;;;;;;;520.22;467.70;;;11.40;99.90;;;11.53;100.00;100094.38;4984333;28;20210;-81
2022/01/03 10:10:27;;;;;;;511.52;461.45;;;11.40;99.90;;;11.48;100.00;100099.69;4961199;28;20220;-81
2022/01/03 10:12:58;;;;;;;481.35;431.02;;;11.40;99.90;;;11.61;100.00;100095.25;4975187;28;20204;-82
2022/01/03 10:15:26;;;;;;;477.85;430.25;;;;;;;11.53;100.00;100076.72;4970598;28;20220;-81
2022/01/03 10:17:55;;;;;;;500.05;429.27;;;;;;;11.60;100.00;100074.97;4977401;28;20216;-82
2022/01/03 10:20:27;;;;;;;547.25;487.67;;;11.50;99.90;;;11.55;100.00;100064.38;4947097;28;20201;-82
2022/01/03 10:23:14;;;;;;;511.42;460.80;;;11.50;99.90;;;11.60;100.00;100085.56;4976882;28;20193;-82
2022/01/03 10:25:43;;;;;;;417.00;325.70;;;11.50;99.90;;;11.58;100.00;100100.56;4970381;28;20213;-82
2022/01/03 10:28:24;;;;;;;438.35;391.58;;;11.50;99.90;;;11.61;100.00;100095.25;4956237;28;20200;-82
2022/01/03 10:30:58;;;;;;;415.60;365.17;;;11.50;99.90;;;11.64;100.00;100092.63;4999091;28;20236;-81
2022/01/03 10:33:28;;;;;;;416.65;352.02;;;11.60;99.90;;;11.64;100.00;100084.66;4967951;28;20231;-82
2022/01/03 10:35:57;;;;;;;549.58;492.58;;;11.60;99.90;;;11.74;100.00;100067.03;4952936;28;20208;-82
2022/01/03 10:38:40;;;;;;;431.35;378.23;;;11.70;99.90;;;11.69;100.00;100059.06;4954231;28;20204;-82
2022/01/03 10:41:14;;;;;;;516.45;460.88;;;11.70;99.90;;;11.76;100.00;100068.78;4998244;28;20663;-81